Time;durP1;ratioP1;P1;durP2;ratioP2;P2;SDS_P1;SDS_P2;PMS_P1;PMS_P2;Temp;Humidity;BMP_temperature;BMP_pressure;BME280_temperature;BME280_humidity;BME280_pressure;Samples;Min_cycle;Max_cycle;Signal;HPM_P1;HPM_P2
2021/08/09 00:02:07;;;;;;;12.02;7.85;;;25.00;99.90;;;;;;5023875;28;20204;-74
2021/08/09 00:04:35;;;;;;;10.97;8.00;;;25.00;99.90;;;;;;5027294;28;20192;-74
2021/08/09 00:07:02;;;;;;;13.00;7.40;;;25.00;99.90;;;;;;5018049;28;20184;-75
2021/08/09 00:09:30;;;;;;;10.97;6.83;;;25.00;99.90;;;;;;5023776;28;20603;-74
2021/08/09 00:11:58;;;;;;;9.45;6.60;;;25.00;99.90;;;;;;5002439;28;20188;-75
2021/08/09 00:14:24;;;;;;;11.95;6.55;;;25.00;99.90;;;;;;5019638;28;20914;-75
2021/08/09 00:16:53;;;;;;;10.43;6.35;;;24.90;99.90;;;;;;5013747;28;20203;-76
2021/08/09 00:19:20;;;;;;;10.95;6.68;;;24.90;99.90;;;;;;5022789;28;20270;-75
2021/08/09 00:21:46;;;;;;;11.50;6.10;;;24.80;99.90;;;;;;5035306;28;20658;-76
2021/08/09 00:24:13;;;;;;;7.95;6.15;;;24.70;99.90;;;;;;5018824;28;20652;-75
2021/08/09 00:26:40;;;;;;;12.77;6.33;;;24.60;99.90;;;;;;5009326;28;20188;-75
2021/08/09 00:29:07;;;;;;;9.65;5.90;;;24.50;99.90;;;;;;5016389;28;20184;-75
2021/08/09 00:31:34;;;;;;;9.73;5.80;;;24.50;99.90;;;;;;5018056;28;20641;-75
2021/08/09 00:34:00;;;;;;;7.77;5.83;;;24.50;99.90;;;;;;5026314;28;20680;-75
2021/08/09 00:36:26;;;;;;;7.45;5.85;;;24.40;99.90;;;;;;5011209;28;20177;-76
2021/08/09 00:38:53;;;;;;;8.80;5.50;;;24.40;99.90;;;;;;5026907;28;20184;-77
2021/08/09 00:41:19;;;;;;;6.78;5.60;;;24.40;99.90;;;;;;5021933;28;20180;-77
2021/08/09 00:43:45;;;;;;;10.18;5.70;;;24.30;99.90;;;;;;5022958;28;20652;-77
2021/08/09 00:46:11;;;;;;;7.47;5.10;;;24.30;99.90;;;;;;5024454;28;20836;-76
2021/08/09 00:48:38;;;;;;;8.32;5.63;;;24.20;99.90;;;;;;5024445;28;20241;-75
2021/08/09 00:51:07;;;;;;;9.03;5.97;;;24.20;99.90;;;;;;5021400;28;20541;-75
2021/08/09 00:53:33;;;;;;;8.60;6.00;;;24.10;99.90;;;;;;5023650;28;20704;-73
2021/08/09 00:56:02;;;;;;;8.93;5.70;;;24.00;99.90;;;;;;5027720;28;20211;-75
2021/08/09 00:58:30;;;;;;;9.77;5.57;;;24.00;99.90;;;;;;5023918;28;20188;-73
2021/08/09 01:00:56;;;;;;;9.07;5.67;;;24.00;99.90;;;;;;5024897;28;20326;-75
2021/08/09 01:03:22;;;;;;;11.80;5.90;;;24.00;99.90;;;;;;5028380;28;20210;-75
2021/08/09 01:05:50;;;;;;;9.87;6.17;;;24.00;99.90;;;;;;5011064;28;20671;-76
2021/08/09 01:08:42;;;;;;;8.57;5.70;;;24.00;99.90;;;;;;5027983;28;20192;-75
2021/08/09 01:11:53;;;;;;;9.93;5.83;;;24.00;99.90;;;;;;5009354;28;20593;-75
2021/08/09 01:14:46;;;;;;;8.60;5.70;;;24.00;99.90;;;;;;5025767;28;20185;-75
2021/08/09 01:17:14;;;;;;;10.43;6.10;;;24.10;99.90;;;;;;5026774;28;20338;-75
2021/08/09 01:20:12;;;;;;;9.77;5.80;;;24.10;99.90;;;;;;5024945;28;20289;-75
2021/08/09 01:23:14;;;;;;;8.13;5.60;;;24.00;99.90;;;;;;5027390;28;20208;-75
2021/08/09 01:26:16;;;;;;;11.70;5.60;;;23.90;99.90;;;;;;5023959;28;20263;-75
2021/08/09 01:28:44;;;;;;;12.00;6.00;;;23.90;99.90;;;;;;5022890;28;20195;-75
2021/08/09 01:31:15;;;;;;;13.80;5.40;;;23.90;99.90;;;;;;5012077;28;20910;-75
2021/08/09 01:33:43;;;;;;;11.13;5.90;;;23.90;99.90;;;;;;5005713;28;20172;-74
2021/08/09 01:36:11;;;;;;;11.63;5.90;;;23.90;99.90;;;;;;5024255;28;20207;-74
2021/08/09 01:38:42;;;;;;;11.67;5.37;;;24.00;99.90;;;;;;5027199;28;20180;-75
2021/08/09 01:41:09;;;;;;;7.90;5.33;;;24.00;99.90;;;;;;5022322;28;20231;-76
2021/08/09 01:43:37;;;;;;;8.77;5.33;;;24.00;99.90;;;;;;5012293;28;20269;-77
2021/08/09 01:46:04;;;;;;;9.47;4.97;;;24.00;99.90;;;;;;5024489;28;20318;-77
2021/08/09 01:48:31;;;;;;;9.27;4.80;;;24.10;99.90;;;;;;5027086;28;20703;-77
2021/08/09 01:50:58;;;;;;;8.07;4.80;;;24.10;99.90;;;;;;5023152;28;20184;-77
2021/08/09 01:53:25;;;;;;;6.47;4.60;;;24.10;99.90;;;;;;5008432;28;20541;-75
2021/08/09 01:55:54;;;;;;;8.57;4.73;;;24.10;99.90;;;;;;5008897;28;20189;-74
2021/08/09 01:58:20;;;;;;;7.63;4.73;;;24.00;99.90;;;;;;5022049;28;20245;-75
2021/08/09 02:00:46;;;;;;;12.00;4.93;;;24.00;99.90;;;;;;5027785;28;20193;-76
2021/08/09 02:03:13;;;;;;;7.13;4.83;;;24.00;99.90;;;;;;5030241;28;20213;-73
2021/08/09 02:05:39;;;;;;;8.23;4.73;;;23.90;99.90;;;;;;5020839;28;20502;-74
2021/08/09 02:08:11;;;;;;;7.43;4.70;;;23.90;99.90;;;;;;5009451;28;20188;-76
2021/08/09 02:10:38;;;;;;;8.63;4.37;;;23.90;99.90;;;;;;5027436;28;20212;-76
2021/08/09 02:13:11;;;;;;;6.40;4.90;;;23.90;99.90;;;;;;5024793;28;20201;-75
2021/08/09 02:16:22;;;;;;;5.87;4.10;;;23.90;99.90;;;;;;5023865;28;20212;-76
2021/08/09 02:18:58;;;;;;;6.83;4.07;;;24.00;99.90;;;;;;5024912;28;20216;-76
2021/08/09 02:21:39;;;;;;;6.70;4.20;;;24.00;99.90;;;;;;5027563;28;20206;-76
2021/08/09 02:24:18;;;;;;;7.20;4.33;;;23.90;99.90;;;;;;5026651;28;20194;-76
2021/08/09 02:27:10;;;;;;;8.27;4.13;;;23.90;99.90;;;;;;5009957;28;21136;-73
2021/08/09 02:29:40;;;;;;;7.33;4.20;;;23.80;99.90;;;;;;5036945;28;20245;-75
2021/08/09 02:32:09;;;;;;;9.10;4.60;;;23.90;99.90;;;;;;5018595;28;20200;-75
2021/08/09 02:34:39;;;;;;;7.23;4.10;;;23.90;99.90;;;;;;5027484;28;20197;-76
2021/08/09 02:37:10;;;;;;;6.17;3.93;;;23.90;99.90;;;;;;5024165;28;20279;-75
2021/08/09 02:39:40;;;;;;;6.87;4.27;;;23.80;99.90;;;;;;5023443;28;20195;-75
2021/08/09 02:42:08;;;;;;;9.27;3.97;;;23.90;99.90;;;;;;5022350;28;20216;-75
2021/08/09 02:44:36;;;;;;;9.63;4.13;;;23.80;99.90;;;;;;5033552;28;20235;-75
2021/08/09 02:47:05;;;;;;;7.23;4.23;;;23.80;99.90;;;;;;5017618;28;20196;-76
2021/08/09 02:49:32;;;;;;;6.67;4.33;;;23.80;99.90;;;;;;5027036;28;20181;-76
2021/08/09 02:52:02;;;;;;;5.83;3.73;;;23.80;99.90;;;;;;5027612;28;20537;-76
2021/08/09 02:54:30;;;;;;;12.30;4.70;;;23.90;99.90;;;;;;5032511;28;20185;-76
2021/08/09 02:56:59;;;;;;;9.43;4.63;;;23.90;99.90;;;;;;5019374;28;20196;-76
2021/08/09 02:59:25;;;;;;;7.93;4.40;;;24.00;99.90;;;;;;5022567;28;20299;-76
2021/08/09 03:01:52;;;;;;;13.73;4.37;;;23.90;99.90;;;;;;5020368;28;20208;-75
2021/08/09 03:04:22;;;;;;;8.80;4.53;;;23.90;99.90;;;;;;5020873;28;20188;-76
2021/08/09 03:06:51;;;;;;;9.87;4.53;;;23.90;99.90;;;;;;5019906;28;20724;-75
2021/08/09 03:09:18;;;;;;;8.83;4.20;;;23.90;99.90;;;;;;5024002;28;20211;-76
2021/08/09 03:11:44;;;;;;;7.87;4.70;;;23.90;99.90;;;;;;5021436;28;20177;-76
2021/08/09 03:14:30;;;;;;;7.53;4.23;;;24.00;99.90;;;;;;5026058;28;20184;-76
2021/08/09 03:17:02;;;;;;;5.57;3.80;;;24.00;99.90;;;;;;5007301;28;20506;-76
2021/08/09 03:19:29;;;;;;;7.47;4.20;;;24.00;99.90;;;;;;5029413;28;21097;-76
2021/08/09 03:21:59;;;;;;;9.83;4.03;;;24.10;99.90;;;;;;5038826;28;20215;-77
2021/08/09 03:24:29;;;;;;;5.97;3.90;;;24.10;99.90;;;;;;5007056;28;20191;-77
2021/08/09 03:26:56;;;;;;;6.07;4.43;;;24.10;99.90;;;;;;5023894;28;20195;-76
2021/08/09 03:29:22;;;;;;;5.00;4.20;;;24.10;99.90;;;;;;5021501;28;20931;-74
2021/08/09 03:31:49;;;;;;;9.45;4.30;;;24.10;99.90;;;;;;5008610;28;20291;-73
2021/08/09 03:34:16;;;;;;;7.68;4.40;;;24.10;99.90;;;;;;5022196;28;20647;-75
2021/08/09 03:36:46;;;;;;;7.53;4.20;;;24.10;99.90;;;;;;5010324;28;20640;-75
2021/08/09 03:39:14;;;;;;;6.45;4.38;;;24.10;99.90;;;;;;5028063;28;20178;-76
2021/08/09 03:41:41;;;;;;;10.97;4.63;;;24.20;99.90;;;;;;5021690;28;20188;-76
2021/08/09 03:44:09;;;;;;;5.57;4.20;;;24.20;99.90;;;;;;5027505;28;20211;-75
2021/08/09 03:46:35;;;;;;;7.47;4.53;;;24.30;99.90;;;;;;5009195;28;20193;-75
2021/08/09 03:49:07;;;;;;;5.05;4.10;;;24.30;99.90;;;;;;5009472;28;20196;-74
2021/08/09 03:51:35;;;;;;;5.95;3.92;;;24.30;99.90;;;;;;5023482;28;20200;-74
2021/08/09 03:54:01;;;;;;;6.28;4.20;;;24.30;99.90;;;;;;5028109;28;20203;-74
2021/08/09 03:56:27;;;;;;;7.40;4.68;;;24.30;99.90;;;;;;5030533;28;20215;-74
2021/08/09 03:58:53;;;;;;;7.50;5.13;;;24.40;99.90;;;;;;5019406;28;20191;-74
2021/08/09 04:01:20;;;;;;;6.10;4.32;;;24.40;99.90;;;;;;5015223;28;20556;-74
2021/08/09 04:03:46;;;;;;;7.72;5.00;;;24.50;99.90;;;;;;5021344;28;20322;-74
2021/08/09 04:06:12;;;;;;;7.95;5.15;;;24.50;99.90;;;;;;5025371;28;20192;-74
2021/08/09 04:08:40;;;;;;;6.45;4.85;;;24.50;99.90;;;;;;5023577;28;20181;-74
2021/08/09 04:11:07;;;;;;;6.45;4.90;;;24.50;99.90;;;;;;5037152;28;20275;-74
2021/08/09 04:13:34;;;;;;;11.07;4.97;;;24.50;99.90;;;;;;5032592;28;20188;-74
2021/08/09 04:16:02;;;;;;;10.88;5.10;;;24.50;99.90;;;;;;5021543;28;20195;-74
2021/08/09 04:18:29;;;;;;;6.22;4.90;;;24.50;99.90;;;;;;5025133;28;20191;-74
2021/08/09 04:20:56;;;;;;;8.38;5.25;;;24.50;99.90;;;;;;5024227;28;20214;-75
2021/08/09 04:23:23;;;;;;;10.60;5.15;;;24.60;99.90;;;;;;5020785;28;20212;-75
2021/08/09 04:25:49;;;;;;;10.85;5.40;;;24.60;99.90;;;;;;5021531;28;20638;-74
2021/08/09 04:28:15;;;;;;;7.82;4.97;;;24.70;99.90;;;;;;5020165;28;20189;-75
2021/08/09 04:30:41;;;;;;;6.40;5.45;;;24.70;99.90;;;;;;5025049;28;20223;-75
2021/08/09 04:33:13;;;;;;;6.80;5.40;;;24.70;99.90;;;;;;5012859;28;20854;-74
2021/08/09 04:35:39;;;;;;;8.43;5.65;;;24.70;99.90;;;;;;5022494;28;20673;-75
2021/08/09 04:38:05;;;;;;;8.80;5.43;;;24.80;99.90;;;;;;5023298;28;20646;-75
2021/08/09 04:40:32;;;;;;;8.20;5.38;;;24.80;99.90;;;;;;5009212;28;20195;-75
2021/08/09 04:42:58;;;;;;;8.88;5.18;;;24.80;99.90;;;;;;5008106;28;20220;-75
2021/08/09 04:45:25;;;;;;;7.13;5.05;;;24.90;99.90;;;;;;5032909;28;20181;-75
2021/08/09 04:47:52;;;;;;;10.25;5.03;;;24.90;99.90;;;;;;5009546;28;20187;-76
2021/08/09 04:50:18;;;;;;;7.32;5.03;;;24.90;99.90;;;;;;5006516;28;20180;-76
2021/08/09 04:52:45;;;;;;;8.18;5.25;;;25.00;99.90;;;;;;5022649;28;20188;-76
2021/08/09 04:55:13;;;;;;;5.88;4.85;;;25.00;99.90;;;;;;5008571;28;20195;-75
2021/08/09 04:57:40;;;;;;;6.95;5.47;;;25.00;99.90;;;;;;5026292;28;20928;-75
2021/08/09 05:00:08;;;;;;;6.22;5.13;;;25.10;99.90;;;;;;5026598;28;20278;-75
2021/08/09 05:02:38;;;;;;;7.85;4.88;;;25.10;99.90;;;;;;5018583;28;20208;-75
2021/08/09 05:05:05;;;;;;;6.65;4.80;;;25.20;99.90;;;;;;5023632;28;20184;-75
2021/08/09 05:07:32;;;;;;;8.52;5.20;;;25.20;99.90;;;;;;5025329;28;20219;-75
2021/08/09 05:09:58;;;;;;;7.53;4.97;;;25.30;99.90;;;;;;5025183;28;20662;-75
2021/08/09 05:12:25;;;;;;;7.13;4.85;;;25.30;99.90;;;;;;5024959;28;20283;-75
2021/08/09 05:14:51;;;;;;;7.38;5.45;;;25.30;99.90;;;;;;5025682;28;21113;-75
2021/08/09 05:17:17;;;;;;;7.20;5.20;;;25.30;99.90;;;;;;5023235;28;20278;-75
2021/08/09 05:19:44;;;;;;;8.15;4.60;;;25.40;99.90;;;;;;5004033;28;20203;-75
2021/08/09 05:22:10;;;;;;;5.88;4.72;;;25.40;99.90;;;;;;5006228;28;20228;-73
2021/08/09 05:24:36;;;;;;;7.72;5.55;;;25.40;99.90;;;;;;5017157;28;20280;-75
2021/08/09 05:27:03;;;;;;;5.82;4.97;;;25.50;99.90;;;;;;5004320;28;20180;-75
2021/08/09 05:29:29;;;;;;;8.77;5.20;;;25.50;99.90;;;;;;5019688;28;20207;-76
2021/08/09 05:31:57;;;;;;;6.32;5.18;;;25.50;99.90;;;;;;5026330;28;20204;-77
2021/08/09 05:34:23;;;;;;;7.15;5.07;;;25.50;99.90;;;;;;5015350;28;20195;-74
2021/08/09 05:36:50;;;;;;;5.90;4.82;;;25.60;99.90;;;;;;5023024;28;20195;-76
2021/08/09 05:39:18;;;;;;;8.18;5.20;;;25.60;99.90;;;;;;5009798;28;20879;-76
2021/08/09 05:41:45;;;;;;;8.30;5.88;;;25.60;99.90;;;;;;5024425;28;20197;-76
2021/08/09 05:44:11;;;;;;;9.40;5.85;;;25.80;99.90;;;;;;5029287;28;20191;-73
2021/08/09 05:46:37;;;;;;;8.52;5.18;;;25.90;99.90;;;;;;5006409;28;20236;-73
2021/08/09 05:49:04;;;;;;;13.85;5.97;;;25.90;99.90;;;;;;5023287;28;20504;-73
2021/08/09 05:51:37;;;;;;;9.90;5.43;;;25.90;99.90;;;;;;5018666;28;20594;-75
2021/08/09 05:54:03;;;;;;;11.05;5.60;;;26.20;99.90;;;;;;5022943;28;20192;-75
2021/08/09 05:56:30;;;;;;;10.05;5.10;;;26.40;99.90;;;;;;5019759;28;20209;-73
2021/08/09 05:58:56;;;;;;;8.38;5.00;;;26.30;99.90;;;;;;5029496;28;20203;-73
2021/08/09 06:01:22;;;;;;;9.25;5.50;;;26.30;99.90;;;;;;5020981;28;20729;-73
2021/08/09 06:03:49;;;;;;;9.57;5.03;;;26.30;99.90;;;;;;5028873;28;20584;-73
2021/08/09 06:06:21;;;;;;;8.18;4.82;;;26.40;99.90;;;;;;5019589;28;20184;-73
2021/08/09 06:08:48;;;;;;;8.32;4.90;;;26.30;99.90;;;;;;5028898;28;20673;-73
2021/08/09 06:11:15;;;;;;;8.65;5.25;;;26.40;99.90;;;;;;5025095;28;20192;-73
2021/08/09 06:13:42;;;;;;;10.57;5.40;;;26.40;99.90;;;;;;5024711;28;20193;-73
2021/08/09 06:16:08;;;;;;;7.03;4.75;;;26.60;99.90;;;;;;5028716;28;20267;-74
2021/08/09 06:18:36;;;;;;;7.55;5.00;;;26.70;99.90;;;;;;5026845;28;20199;-73
2021/08/09 06:21:04;;;;;;;7.43;4.80;;;27.00;99.90;;;;;;5010433;28;20308;-73
2021/08/09 06:23:33;;;;;;;7.88;5.13;;;27.20;99.90;;;;;;5021445;28;20204;-73
2021/08/09 06:25:59;;;;;;;8.98;5.10;;;27.20;99.90;;;;;;5020319;28;20505;-73
2021/08/09 06:28:26;;;;;;;13.32;5.35;;;27.10;99.90;;;;;;5019465;28;20198;-73
2021/08/09 06:30:52;;;;;;;46.63;6.57;;;27.20;99.90;;;;;;5018059;28;20222;-73
2021/08/09 06:33:19;;;;;;;13.75;5.68;;;27.40;99.90;;;;;;5027544;28;20190;-73
2021/08/09 06:35:46;;;;;;;6.05;4.80;;;27.50;99.90;;;;;;5018422;28;20750;-73
2021/08/09 06:38:13;;;;;;;14.43;5.85;;;27.70;99.90;;;;;;5005496;28;20195;-73
2021/08/09 06:40:43;;;;;;;8.80;5.03;;;27.80;99.90;;;;;;5012832;28;20189;-73
2021/08/09 06:43:09;;;;;;;8.95;5.03;;;27.90;99.90;;;;;;5026257;28;20212;-73
2021/08/09 06:45:47;;;;;;;10.43;4.72;;;27.70;99.90;;;;;;5024476;28;20271;-73
2021/08/09 06:48:13;;;;;;;8.13;4.93;;;27.90;99.90;;;;;;5011415;28;20206;-73
2021/08/09 06:50:42;;;;;;;8.25;4.85;;;27.90;99.90;;;;;;5023670;28;20172;-73
2021/08/09 06:53:10;;;;;;;9.20;4.95;;;28.00;99.90;;;;;;5007861;28;20691;-73
2021/08/09 06:55:37;;;;;;;13.60;5.22;;;28.00;99.90;;;;;;5022358;28;20695;-74
2021/08/09 06:58:03;;;;;;;9.32;4.75;;;28.30;99.90;;;;;;5009969;28;20675;-73
2021/08/09 07:00:30;;;;;;;6.03;4.80;;;28.30;99.90;;;;;;5024945;28;20671;-74
2021/08/09 07:02:56;;;;;;;9.70;5.40;;;28.40;99.90;;;;;;5009106;28;20596;-73
2021/08/09 07:05:22;;;;;;;10.88;4.45;;;28.40;99.90;;;;;;5022994;28;20193;-73
2021/08/09 07:07:52;;;;;;;7.10;4.72;;;28.40;99.90;;;;;;5022541;28;20628;-75
2021/08/09 07:10:19;;;;;;;8.35;4.40;;;28.40;99.90;;;;;;5019552;28;20185;-75
2021/08/09 07:12:45;;;;;;;8.60;4.40;;;28.50;99.90;;;;;;5025438;28;20570;-74
2021/08/09 07:15:12;;;;;;;8.38;4.47;;;28.60;99.90;;;;;;5022322;28;20727;-74
2021/08/09 07:17:42;;;;;;;8.00;4.57;;;28.60;99.90;;;;;;5007180;28;20184;-74
2021/08/09 07:20:10;;;;;;;8.10;4.85;;;28.60;99.90;;;;;;5011709;28;20184;-74
2021/08/09 07:22:42;;;;;;;7.75;4.78;;;28.90;99.90;;;;;;5020017;28;21023;-75
2021/08/09 07:25:12;;;;;;;7.40;4.97;;;28.90;99.90;;;;;;5022876;28;20192;-74
2021/08/09 07:27:39;;;;;;;8.15;4.53;;;29.00;99.90;;;;;;5016117;28;20537;-75
2021/08/09 07:30:14;;;;;;;9.00;4.43;;;29.20;99.90;;;;;;5019516;28;20704;-75
2021/08/09 07:32:41;;;;;;;7.00;4.55;;;29.20;99.90;;;;;;5005409;28;20222;-75
2021/08/09 07:35:09;;;;;;;9.07;4.88;;;29.20;99.90;;;;;;5019976;28;20585;-74
2021/08/09 07:37:36;;;;;;;13.10;5.38;;;29.60;99.90;;;;;;5020239;28;20185;-74
2021/08/09 07:40:05;;;;;;;7.68;4.50;;;29.70;99.90;;;;;;4999463;28;20572;-74
2021/08/09 07:42:32;;;;;;;9.02;4.80;;;29.60;99.90;;;;;;5039057;28;20223;-74
2021/08/09 07:44:58;;;;;;;9.48;4.53;;;29.80;99.90;;;;;;5033874;28;20199;-75
2021/08/09 07:47:27;;;;;;;8.40;4.22;;;29.70;99.90;;;;;;5033817;28;20659;-75
2021/08/09 07:49:54;;;;;;;7.25;4.50;;;29.80;99.90;;;;;;5022537;28;20207;-75
2021/08/09 07:52:20;;;;;;;8.45;4.88;;;30.00;99.90;;;;;;5027159;28;20196;-75
2021/08/09 07:54:46;;;;;;;10.93;4.90;;;29.90;99.90;;;;;;5024728;28;20188;-73
2021/08/09 07:57:14;;;;;;;9.43;5.13;;;30.00;99.90;;;;;;5023581;28;20192;-73
2021/08/09 07:59:40;;;;;;;11.18;4.82;;;30.10;99.90;;;;;;5028514;28;20284;-73
2021/08/09 08:02:07;;;;;;;9.38;4.78;;;30.40;99.90;;;;;;5019562;28;20629;-72
2021/08/09 08:04:38;;;;;;;9.45;4.68;;;30.30;99.90;;;;;;5021117;28;20180;-72
2021/08/09 08:07:05;;;;;;;9.27;4.60;;;30.40;99.90;;;;;;5006914;28;20326;-75
2021/08/09 08:09:31;;;;;;;8.10;4.68;;;30.40;99.90;;;;;;5012632;28;20842;-74
2021/08/09 08:12:01;;;;;;;8.85;4.97;;;30.50;99.90;;;;;;5016979;28;20189;-75
2021/08/09 08:14:28;;;;;;;10.40;5.25;;;30.60;99.90;;;;;;5022817;28;20266;-74
2021/08/09 08:16:55;;;;;;;11.30;4.95;;;30.50;99.90;;;;;;5020994;28;20204;-74
2021/08/09 08:19:22;;;;;;;11.70;4.95;;;30.50;99.90;;;;;;5009806;28;20212;-74
2021/08/09 08:21:49;;;;;;;9.63;4.78;;;30.70;99.90;;;;;;5023775;28;20870;-74
2021/08/09 08:24:15;;;;;;;10.90;5.50;;;30.70;99.90;;;;;;5016576;28;20193;-74
2021/08/09 08:26:42;;;;;;;10.32;4.90;;;30.60;99.90;;;;;;5024624;28;20183;-75
2021/08/09 08:29:09;;;;;;;12.00;5.15;;;30.80;99.90;;;;;;5008068;28;20195;-73
2021/08/09 08:31:35;;;;;;;15.93;5.38;;;30.80;99.90;;;;;;5024575;28;20557;-73
2021/08/09 08:34:04;;;;;;;10.52;5.05;;;30.90;99.90;;;;;;5020800;28;20331;-74
2021/08/09 08:36:30;;;;;;;12.10;4.85;;;30.80;99.90;;;;;;5021649;28;20188;-73
2021/08/09 08:38:57;;;;;;;9.35;5.00;;;31.00;99.90;;;;;;5022656;28;20184;-71
2021/08/09 08:41:24;;;;;;;10.93;4.93;;;30.90;99.90;;;;;;5012078;28;20294;-72
2021/08/09 08:43:50;;;;;;;9.38;4.43;;;31.00;99.90;;;;;;5024775;28;20238;-73
2021/08/09 08:46:18;;;;;;;10.60;4.70;;;31.20;99.90;;;;;;5016658;28;20188;-74
2021/08/09 08:48:46;;;;;;;10.73;5.18;;;31.10;99.90;;;;;;5023789;28;20184;-74
2021/08/09 08:51:13;;;;;;;12.07;4.68;;;31.20;99.90;;;;;;5024833;28;20190;-76
2021/08/09 08:53:39;;;;;;;12.23;5.05;;;31.20;99.90;;;;;;5032895;28;20199;-75
2021/08/09 08:56:08;;;;;;;10.88;4.93;;;31.30;99.90;;;;;;5020431;28;20230;-74
2021/08/09 08:58:36;;;;;;;11.52;4.88;;;31.40;99.90;;;;;;5017278;28;20196;-74
2021/08/09 09:01:03;;;;;;;11.25;4.60;;;31.50;99.90;;;;;;5022942;28;21025;-74
2021/08/09 09:03:31;;;;;;;11.73;5.00;;;31.60;99.90;;;;;;5021808;28;20270;-74
2021/08/09 09:06:09;;;;;;;10.63;4.25;;;31.50;99.90;;;;;;5007142;28;20185;-75
2021/08/09 09:08:50;;;;;;;9.48;4.90;;;31.60;99.90;;;;;;5018823;28;20684;-74
2021/08/09 09:11:22;;;;;;;7.32;4.20;;;31.60;99.90;;;;;;5001105;28;20190;-74
2021/08/09 09:14:00;;;;;;;18.15;4.65;;;31.60;99.90;;;;;;5014415;28;20185;-73
2021/08/09 09:16:47;;;;;;;7.93;4.47;;;31.70;99.90;;;;;;5025399;28;20249;-73
2021/08/09 09:19:39;;;;;;;8.35;4.18;;;31.70;99.90;;;;;;5010606;28;20238;-75
2021/08/09 09:22:18;;;;;;;10.25;3.88;;;31.60;99.90;;;;;;5023222;28;20239;-73
2021/08/09 09:24:54;;;;;;;14.32;5.18;;;31.80;99.90;;;;;;5016178;28;20185;-73
2021/08/09 09:27:34;;;;;;;8.98;3.67;;;31.80;99.90;;;;;;5022948;28;20184;-73
2021/08/09 09:30:29;;;;;;;12.15;4.38;;;31.80;99.90;;;;;;5024749;28;20211;-74
2021/08/09 09:33:05;;;;;;;6.85;4.22;;;32.00;99.90;;;;;;5023389;28;20875;-73
2021/08/09 09:35:37;;;;;;;10.52;4.70;;;32.00;99.90;;;;;;5023375;28;20196;-73
2021/08/09 09:38:04;;;;;;;11.07;4.22;;;32.20;99.90;;;;;;5020803;28;20911;-75
2021/08/09 09:40:41;;;;;;;7.05;4.38;;;32.20;99.90;;;;;;5020550;28;20288;-75
2021/08/09 09:43:20;;;;;;;6.78;4.18;;;32.90;99.90;;;;;;5019024;28;20215;-73
2021/08/09 09:45:54;;;;;;;10.70;4.40;;;33.70;99.90;;;;;;5023279;28;20277;-73
2021/08/09 09:48:38;;;;;;;6.90;4.10;;;33.90;99.90;;;;;;5023023;28;20192;-72
2021/08/09 09:51:16;;;;;;;11.50;4.20;;;33.50;99.90;;;;;;5019829;28;20282;-73
2021/08/09 09:53:46;;;;;;;8.45;3.70;;;33.30;99.90;;;;;;5022250;28;20934;-73
2021/08/09 09:56:13;;;;;;;9.90;4.47;;;33.30;99.90;;;;;;5019745;28;21605;-75
2021/08/09 09:58:40;;;;;;;9.63;4.25;;;33.00;99.90;;;;;;5034301;28;20838;-74
2021/08/09 10:01:10;;;;;;;8.73;4.38;;;33.20;99.90;;;;;;5024396;28;20192;-74
2021/08/09 10:03:41;;;;;;;9.13;4.40;;;33.40;99.90;;;;;;5024726;28;20519;-73
2021/08/09 10:06:10;;;;;;;11.73;4.35;;;33.40;99.90;;;;;;5019297;28;20188;-74
2021/08/09 10:08:44;;;;;;;8.70;4.10;;;33.20;99.90;;;;;;5019043;28;21038;-75
2021/08/09 10:11:13;;;;;;;8.95;4.22;;;33.50;99.90;;;;;;5026149;28;20188;-75
2021/08/09 10:13:41;;;;;;;6.68;4.18;;;33.40;99.90;;;;;;5020603;28;20208;-73
2021/08/09 10:16:13;;;;;;;9.25;4.03;;;33.30;99.90;;;;;;5009989;28;20195;-73
2021/08/09 10:18:50;;;;;;;11.25;4.45;;;33.60;99.90;;;;;;5033310;28;20290;-72
2021/08/09 10:21:18;;;;;;;7.03;3.92;;;33.70;99.80;;;;;;5026113;28;20242;-72
2021/08/09 10:23:48;;;;;;;6.28;3.47;;;33.60;99.80;;;;;;5025775;28;20211;-72
2021/08/09 10:26:26;;;;;;;5.85;3.78;;;33.50;99.90;;;;;;5024236;28;20846;-73
2021/08/09 10:28:55;;;;;;;10.23;4.25;;;33.70;99.90;;;;;;5033943;28;20187;-73
2021/08/09 10:31:28;;;;;;;12.88;3.90;;;33.90;99.90;;;;;;5022577;28;20205;-73
2021/08/09 10:33:56;;;;;;;9.48;4.22;;;35.50;99.80;;;;;;5024443;28;20192;-73
2021/08/09 10:36:23;;;;;;;10.13;3.83;;;37.40;97.10;;;;;;5022336;28;20268;-73
2021/08/09 10:38:59;;;;;;;8.32;4.35;;;38.10;95.30;;;;;;5022193;28;20668;-73
2021/08/09 10:41:34;;;;;;;11.90;4.45;;;38.10;93.30;;;;;;5019397;28;20189;-73
2021/08/09 10:44:07;;;;;;;9.45;4.65;;;36.50;94.50;;;;;;5021656;28;20227;-72
2021/08/09 10:46:44;;;;;;;14.10;4.25;;;35.50;95.40;;;;;;5019040;28;20188;-72
2021/08/09 10:49:39;;;;;;;13.23;4.00;;;34.90;95.80;;;;;;5019770;28;20192;-73
2021/08/09 10:52:09;;;;;;;7.78;3.83;;;34.60;96.30;;;;;;5023592;28;20283;-72
2021/08/09 10:54:38;;;;;;;8.35;3.80;;;34.20;96.20;;;;;;5024091;28;20185;-72
2021/08/09 10:57:05;;;;;;;9.10;4.00;;;34.10;96.20;;;;;;5028550;28;20203;-72
2021/08/09 10:59:45;;;;;;;10.43;4.10;;;33.90;96.10;;;;;;5020057;28;20200;-72
2021/08/09 11:02:35;;;;;;;9.70;4.07;;;33.80;95.80;;;;;;5018815;28;20615;-72
2021/08/09 11:05:17;;;;;;;8.40;4.30;;;34.00;96.40;;;;;;5020635;28;21192;-72
2021/08/09 11:08:20;;;;;;;8.88;3.80;;;33.90;95.70;;;;;;5024307;28;20244;-72
2021/08/09 11:10:58;;;;;;;9.05;3.88;;;34.00;95.30;;;;;;5019950;28;20710;-72
2021/08/09 11:13:28;;;;;;;6.47;3.42;;;33.70;95.70;;;;;;5019852;28;20681;-72
2021/08/09 11:16:05;;;;;;;8.45;3.60;;;33.70;94.90;;;;;;5016048;28;20231;-72
2021/08/09 11:18:37;;;;;;;6.60;3.60;;;33.60;94.20;;;;;;5018888;28;20622;-72
2021/08/09 11:21:08;;;;;;;14.50;3.10;;;33.60;91.80;;;;;;5019266;28;20871;-73
2021/08/09 11:23:38;;;;;;;8.88;3.72;;;33.50;92.10;;;;;;5021796;28;20918;-74
2021/08/09 11:26:06;;;;;;;6.85;3.47;;;33.60;91.10;;;;;;5023576;28;20184;-74
2021/08/09 11:28:33;;;;;;;12.88;3.92;;;33.70;90.20;;;;;;5025249;28;20195;-74
2021/08/09 11:31:04;;;;;;;7.65;3.67;;;33.60;91.80;;;;;;5015620;28;20207;-74
2021/08/09 11:33:36;;;;;;;9.32;3.08;;;33.50;92.10;;;;;;5021083;28;20202;-74
2021/08/09 11:36:15;;;;;;;7.53;3.30;;;33.60;91.90;;;;;;5019396;28;20200;-74
2021/08/09 11:38:54;;;;;;;6.20;3.35;;;33.40;92.20;;;;;;5011884;28;20783;-74
2021/08/09 11:41:29;;;;;;;7.25;3.55;;;33.40;93.20;;;;;;5017566;28;20193;-74
2021/08/09 11:44:10;;;;;;;10.15;3.50;;;33.50;91.70;;;;;;5023979;28;20207;-74
2021/08/09 11:46:45;;;;;;;8.18;2.95;;;33.60;90.80;;;;;;5015725;28;20279;-74
2021/08/09 11:49:13;;;;;;;6.18;3.00;;;33.60;92.30;;;;;;5022268;28;20720;-74
2021/08/09 11:51:39;;;;;;;8.27;3.45;;;33.70;92.50;;;;;;5019103;28;20929;-74
2021/08/09 11:54:07;;;;;;;7.57;3.20;;;33.60;92.20;;;;;;5025388;28;20188;-72
2021/08/09 11:56:38;;;;;;;10.57;3.33;;;33.40;93.40;;;;;;5011963;28;20184;-74
2021/08/09 11:59:12;;;;;;;6.07;3.35;;;33.40;91.20;;;;;;5032917;28;20189;-73
2021/08/09 12:01:45;;;;;;;10.15;3.30;;;33.40;91.60;;;;;;5024209;28;20196;-72
2021/08/09 12:04:16;;;;;;;5.90;3.25;;;33.60;91.20;;;;;;5018899;28;20300;-74
2021/08/09 12:06:56;;;;;;;5.82;3.60;;;33.50;91.10;;;;;;5018218;28;20700;-72
2021/08/09 12:09:43;;;;;;;7.32;3.28;;;33.50;90.90;;;;;;5021639;28;20237;-74
2021/08/09 12:12:12;;;;;;;6.63;3.30;;;33.40;92.00;;;;;;5003555;28;20184;-74
2021/08/09 12:14:41;;;;;;;7.28;3.05;;;33.30;90.10;;;;;;5037328;28;20189;-71
2021/08/09 12:17:21;;;;;;;7.78;3.10;;;33.50;90.20;;;;;;5016924;28;20192;-73
2021/08/09 12:19:53;;;;;;;7.35;3.25;;;33.30;87.40;;;;;;4999251;28;20184;-74
2021/08/09 12:22:38;;;;;;;9.43;3.35;;;33.60;85.40;;;;;;5021068;28;20711;-74
2021/08/09 12:25:24;;;;;;;9.80;3.15;;;33.50;90.10;;;;;;5019493;28;20195;-74
2021/08/09 12:28:04;;;;;;;8.25;3.53;;;33.40;90.10;;;;;;5019900;28;20184;-74
2021/08/09 12:30:31;;;;;;;7.60;3.67;;;33.50;85.70;;;;;;5018846;28;20656;-73
2021/08/09 12:33:06;;;;;;;8.73;2.88;;;33.50;87.80;;;;;;5017378;28;20307;-74
2021/08/09 12:35:39;;;;;;;11.98;3.20;;;33.30;89.50;;;;;;5017342;28;20231;-74
2021/08/09 12:38:09;;;;;;;7.28;2.90;;;33.50;86.20;;;;;;5020769;28;20216;-74
2021/08/09 12:40:49;;;;;;;6.50;3.13;;;33.40;85.10;;;;;;5026285;28;21031;-74
2021/08/09 12:43:21;;;;;;;10.65;3.40;;;33.60;86.40;;;;;;5019875;28;20204;-74
2021/08/09 12:45:49;;;;;;;6.05;2.92;;;33.60;85.40;;;;;;5007933;28;20180;-74
2021/08/09 12:48:16;;;;;;;6.40;3.28;;;33.40;89.00;;;;;;5017532;28;20188;-74
2021/08/09 12:50:44;;;;;;;9.40;3.10;;;33.60;86.30;;;;;;5015777;28;20180;-74
2021/08/09 12:53:12;;;;;;;8.23;3.53;;;33.70;87.00;;;;;;5024283;28;20185;-74
2021/08/09 12:55:40;;;;;;;5.25;3.00;;;33.70;84.70;;;;;;5019852;28;20565;-74
2021/08/09 12:58:07;;;;;;;8.57;3.70;;;33.60;87.30;;;;;;5026374;28;20199;-74
2021/08/09 13:00:36;;;;;;;7.90;3.15;;;33.60;86.20;;;;;;5026968;28;20212;-74